Time;durP1;ratioP1;P1;durP2;ratioP2;P2;SDS_P1;SDS_P2;PMS_P1;PMS_P2;Temp;Humidity;BMP_temperature;BMP_pressure;BME280_temperature;BME280_humidity;BME280_pressure;Samples;Min_cycle;Max_cycle;Signal;HPM_P1;HPM_P2
2022/04/05 04:05:01;;;;;;;3.87;3.53;;;2.10;96.30;;;;;;4991030;28;20468;-74
2022/04/05 04:07:26;;;;;;;2.43;2.23;;;2.10;96.30;;;;;;4992019;28;20447;-79
2022/04/05 04:09:52;;;;;;;2.53;2.33;;;2.20;96.30;;;;;;4992416;28;20286;-74
2022/04/05 04:12:17;;;;;;;5.03;2.90;;;2.20;96.30;;;;;;5009761;28;20235;-74
2022/04/05 04:14:43;;;;;;;2.80;2.60;;;2.20;96.30;;;;;;4995197;28;20173;-73
2022/04/05 04:17:09;;;;;;;2.87;2.63;;;2.20;96.30;;;;;;5012920;28;20173;-73
2022/04/05 04:19:34;;;;;;;2.33;2.10;;;2.20;96.30;;;;;;5012024;28;20173;-74
2022/04/05 07:38:38;;;;;;;1.80;1.70;;;4.40;96.30;;;;;;4953502;29;20474;-81
2022/04/05 07:41:04;;;;;;;2.30;1.97;;;4.60;96.30;;;;;;4945198;28;20969;-81
2022/04/05 07:43:29;;;;;;;1.80;1.70;;;4.60;96.30;;;;;;4974424;28;20205;-81
2022/04/05 07:45:56;;;;;;;3.47;1.87;;;4.60;96.30;;;;;;4974561;28;20171;-79
2022/04/05 07:48:26;;;;;;;1.90;1.70;;;4.60;96.30;;;;;;4956109;28;20643;-81
2022/04/05 07:50:51;;;;;;;2.47;2.00;;;4.50;96.30;;;;;;4954949;28;20481;-80
2022/04/05 07:53:17;;;;;;;1.87;1.73;;;4.50;96.30;;;;;;4955119;29;20470;-80
2022/04/05 07:55:43;;;;;;;2.00;1.90;;;4.40;96.30;;;;;;4953314;29;20178;-79
2022/04/05 07:58:09;;;;;;;2.00;1.80;;;4.30;96.30;;;;;;4955077;29;20175;-81
2022/04/05 08:00:36;;;;;;;2.10;1.90;;;4.30;96.30;;;;;;4955850;28;20536;-81
2022/04/05 08:03:01;;;;;;;1.50;1.40;;;4.40;96.30;;;;;;4954011;29;20962;-80
2022/04/05 08:05:27;;;;;;;2.33;2.13;;;4.40;96.30;;;;;;4954040;28;20426;-81
2022/04/05 08:07:54;;;;;;;2.90;2.13;;;4.50;96.30;;;;;;4955221;28;20318;-80
2022/04/05 08:10:19;;;;;;;2.20;1.83;;;4.70;96.30;;;;;;4955141;28;20183;-80
2022/04/05 08:12:47;;;;;;;1.80;1.70;;;4.70;96.30;;;;;;4955104;28;21006;-80
2022/04/05 08:15:24;;;;;;;1.53;1.43;;;4.60;96.30;;;;;;4953743;29;20179;-81
2022/04/05 08:17:50;;;;;;;2.00;1.50;;;4.70;96.30;;;;;;4954116;29;20414;-80
2022/04/05 08:20:17;;;;;;;1.80;1.70;;;4.80;96.30;;;;;;4954224;29;20427;-81
2022/04/05 08:22:43;;;;;;;1.87;1.67;;;4.70;96.30;;;;;;4954053;29;20930;-80
2022/04/05 08:25:14;;;;;;;1.40;1.30;;;4.70;96.30;;;;;;4956273;28;20488;-80
2022/04/05 08:27:39;;;;;;;1.70;1.60;;;4.70;96.30;;;;;;4957798;29;20178;-79
2022/04/05 08:30:06;;;;;;;2.37;1.60;;;4.70;96.30;;;;;;4959780;28;20410;-80
2022/04/05 08:32:31;;;;;;;1.73;1.63;;;4.80;96.30;;;;;;4958989;28;20283;-80
2022/04/05 08:34:57;;;;;;;2.17;1.97;;;4.80;96.30;;;;;;4978681;28;20445;-80
2022/04/05 08:37:22;;;;;;;2.33;1.77;;;4.90;96.30;;;;;;4960584;28;20194;-78
2022/04/05 08:39:48;;;;;;;1.50;1.40;;;5.00;96.30;;;;;;4957745;29;20242;-80
2022/04/05 08:42:14;;;;;;;1.60;1.50;;;5.00;96.30;;;;;;4959954;28;20194;-80
2022/04/05 08:44:43;;;;;;;3.73;1.50;;;5.00;96.30;;;;;;4958021;29;20422;-81
2022/04/05 08:47:11;;;;;;;1.80;1.40;;;5.00;96.30;;;;;;4962283;28;20193;-80
2022/04/05 08:49:37;;;;;;;1.60;1.50;;;5.00;96.30;;;;;;4959766;28;20938;-80
2022/04/05 08:52:03;;;;;;;1.43;1.30;;;5.00;96.30;;;;;;4977430;28;20487;-81
2022/04/05 08:54:28;;;;;;;1.87;1.37;;;5.00;96.30;;;;;;4959998;28;20230;-81
2022/04/05 08:56:54;;;;;;;1.47;1.30;;;5.00;96.30;;;;;;4977531;28;20185;-81
2022/04/05 08:59:20;;;;;;;2.37;1.70;;;5.00;96.30;;;;;;4957434;28;20175;-80
2022/04/05 09:01:45;;;;;;;1.33;1.23;;;5.00;96.30;;;;;;4961093;28;20234;-79
2022/04/05 09:04:11;;;;;;;1.90;1.70;;;5.10;96.30;;;;;;4977754;28;20170;-81
2022/04/05 09:06:37;;;;;;;1.47;1.37;;;5.20;96.30;;;;;;4977648;28;20209;-81
2022/04/05 09:09:13;;;;;;;1.53;1.37;;;5.30;96.30;;;;;;4977393;28;20670;-80
2022/04/05 09:11:56;;;;;;;1.50;1.40;;;5.30;96.30;;;;;;4977750;28;20197;-81
2022/04/05 09:14:23;;;;;;;1.70;1.30;;;5.30;96.30;;;;;;4960406;28;20457;-81
2022/04/05 09:17:10;;;;;;;1.43;1.33;;;5.40;96.30;;;;;;4977457;28;20413;-80
2022/04/05 09:19:37;;;;;;;1.70;1.30;;;5.40;96.30;;;;;;4960178;28;20921;-80
2022/04/05 09:22:03;;;;;;;1.20;1.10;;;5.50;96.30;;;;;;4976799;28;21204;-81
2022/04/05 09:24:37;;;;;;;1.27;1.17;;;5.50;96.30;;;;;;4978038;28;20497;-80
2022/04/05 09:27:04;;;;;;;1.20;1.10;;;5.50;96.30;;;;;;4961843;28;20233;-77
2022/04/05 09:29:40;;;;;;;1.87;1.00;;;5.50;96.30;;;;;;4964098;28;20429;-80
2022/04/05 09:32:06;;;;;;;1.30;1.20;;;5.60;96.30;;;;;;4959302;28;20449;-79
2022/04/05 09:34:32;;;;;;;1.20;1.10;;;5.50;96.30;;;;;;4976529;28;20457;-79
2022/04/05 09:37:07;;;;;;;1.33;1.13;;;5.50;96.30;;;;;;4976269;28;20197;-80
2022/04/05 09:39:33;;;;;;;0.97;0.87;;;5.60;96.30;;;;;;4959422;28;20237;-78
2022/04/05 09:42:02;;;;;;;1.10;1.00;;;5.80;96.30;;;;;;4976311;28;20430;-79
2022/04/05 09:44:33;;;;;;;1.17;1.07;;;5.80;96.30;;;;;;4976402;28;20229;-80
2022/04/05 09:47:08;;;;;;;1.00;0.90;;;5.80;96.30;;;;;;4970562;28;20430;-78
2022/04/05 09:49:37;;;;;;;1.57;1.10;;;5.90;96.30;;;;;;4975790;28;20413;-79
2022/04/05 09:52:20;;;;;;;0.90;0.80;;;5.90;96.30;;;;;;4974909;28;20433;-80
2022/04/05 09:54:46;;;;;;;1.10;1.00;;;5.90;96.30;;;;;;4939833;29;20489;-78
2022/04/05 09:57:11;;;;;;;0.93;0.83;;;6.10;96.30;;;;;;4939934;29;20918;-78
2022/04/05 09:59:45;;;;;;;1.40;1.03;;;5.90;96.30;;;;;;4939872;29;20171;-80
2022/04/05 10:02:16;;;;;;;0.90;0.73;;;5.90;96.30;;;;;;4956932;29;20187;-78
2022/04/05 10:05:06;;;;;;;1.07;0.80;;;5.90;96.30;;;;;;4956997;29;20423;-79
2022/04/05 10:07:33;;;;;;;1.00;0.90;;;5.90;96.30;;;;;;4939583;29;20423;-78
2022/04/05 10:10:00;;;;;;;1.40;0.90;;;5.90;96.30;;;;;;4975476;28;20425;-80
2022/04/05 10:12:26;;;;;;;2.40;1.20;;;5.70;96.30;;;;;;4975902;28;20984;-80
2022/04/05 10:14:52;;;;;;;1.00;0.90;;;5.80;96.30;;;;;;4960632;28;20461;-80
2022/04/05 10:17:22;;;;;;;1.80;0.93;;;5.80;96.30;;;;;;4958825;28;20422;-77
2022/04/05 10:19:49;;;;;;;0.90;0.80;;;5.80;96.30;;;;;;4975963;28;20428;-80
2022/04/05 10:24:52;;;;;;;2.20;1.00;;;5.90;96.30;;;;;;5144768;23;20484;-80
2022/04/05 10:27:19;;;;;;;1.50;1.40;;;6.00;96.30;;;;;;4993963;28;20884;-76
2022/04/05 10:29:47;;;;;;;1.00;0.90;;;6.00;96.30;;;;;;4992438;28;20417;-76
2022/04/05 10:32:29;;;;;;;2.33;1.20;;;6.00;96.30;;;;;;4993761;28;20513;-78
2022/04/05 10:35:08;;;;;;;1.07;0.97;;;5.90;96.30;;;;;;4993712;28;20496;-79
2022/04/05 10:37:38;;;;;;;1.27;1.10;;;6.00;96.30;;;;;;4993545;28;20904;-76
2022/04/05 10:40:09;;;;;;;1.30;1.20;;;6.00;96.30;;;;;;4993669;28;20818;-75
2022/04/05 10:42:46;;;;;;;2.23;2.00;;;6.10;96.30;;;;;;4993582;28;20396;-75
2022/04/05 10:45:20;;;;;;;1.67;1.30;;;6.10;96.30;;;;;;4993478;28;20418;-76
2022/04/05 10:48:16;;;;;;;1.47;1.37;;;6.20;96.30;;;;;;4993224;28;21034;-75
2022/04/05 10:50:44;;;;;;;1.57;1.23;;;6.10;96.30;;;;;;4993474;28;20505;-75
2022/04/05 10:53:12;;;;;;;1.30;1.10;;;6.20;96.30;;;;;;4991963;28;20453;-76
2022/04/05 10:56:02;;;;;;;1.30;1.20;;;6.30;96.30;;;;;;4993407;28;20421;-75
2022/04/05 10:58:32;;;;;;;1.57;1.40;;;6.20;96.30;;;;;;4993115;28;20444;-75
2022/04/05 11:01:20;;;;;;;1.40;1.30;;;6.20;96.30;;;;;;4993585;28;20786;-75
2022/04/05 11:04:29;;;;;;;1.50;0.83;;;6.30;96.30;;;;;;4993279;28;20416;-76
2022/04/05 11:07:05;;;;;;;1.30;1.03;;;6.40;96.30;;;;;;4993251;28;20452;-75
2022/04/05 11:09:47;;;;;;;1.53;0.80;;;6.60;96.30;;;;;;4991692;28;20428;-75
2022/04/05 11:12:25;;;;;;;1.10;0.90;;;6.70;96.30;;;;;;4992976;28;20698;-76
2022/04/05 11:15:08;;;;;;;1.20;0.90;;;6.70;96.30;;;;;;4993032;28;20485;-76
2022/04/05 11:17:36;;;;;;;1.10;0.80;;;6.70;96.30;;;;;;4991878;28;20753;-77
2022/04/05 11:20:03;;;;;;;0.90;0.80;;;6.60;96.30;;;;;;4993013;28;20412;-76
2022/04/05 11:22:32;;;;;;;1.17;1.07;;;6.50;96.30;;;;;;4992791;28;20520;-77
2022/04/05 11:25:08;;;;;;;1.10;1.00;;;6.40;96.30;;;;;;4991839;28;20432;-76
2022/04/05 11:27:38;;;;;;;1.00;0.90;;;6.30;96.30;;;;;;4992833;28;20440;-75
2022/04/05 11:30:26;;;;;;;1.87;1.20;;;6.20;96.30;;;;;;4992867;28;20996;-79
2022/04/05 11:33:12;;;;;;;2.40;0.90;;;6.20;96.30;;;;;;4992832;28;20452;-75
2022/04/05 11:35:42;;;;;;;1.20;0.93;;;6.30;96.30;;;;;;4991621;28;20441;-76
2022/04/05 11:38:32;;;;;;;1.00;0.87;;;6.40;96.30;;;;;;4991395;28;20411;-76
2022/04/05 11:41:01;;;;;;;1.10;0.90;;;6.50;96.30;;;;;;4992240;28;20440;-77
2022/04/05 11:43:30;;;;;;;1.17;1.07;;;6.60;96.30;;;;;;4992840;28;20420;-76
2022/04/05 11:46:03;;;;;;;1.50;1.00;;;6.70;96.30;;;;;;4992855;28;20448;-77
2022/04/05 11:48:29;;;;;;;2.50;1.20;;;6.80;96.30;;;;;;4992934;28;20405;-77
2022/04/05 11:50:59;;;;;;;1.30;1.20;;;6.90;96.30;;;;;;4992564;28;21020;-77
2022/04/05 11:53:29;;;;;;;1.23;1.10;;;6.90;96.30;;;;;;4992718;28;20201;-77
2022/04/05 11:56:17;;;;;;;1.47;1.17;;;6.90;96.30;;;;;;4992728;28;20460;-77
2022/04/05 11:58:46;;;;;;;1.30;1.00;;;7.10;96.30;;;;;;4991348;28;20451;-77
2022/04/05 12:01:13;;;;;;;1.30;1.10;;;7.00;96.30;;;;;;4996357;28;20504;-78
2022/04/05 12:03:52;;;;;;;1.20;1.10;;;7.00;96.30;;;;;;4996631;28;20420;-77
2022/04/05 12:06:20;;;;;;;1.10;1.00;;;6.90;96.30;;;;;;4995332;28;20455;-79
2022/04/05 12:08:47;;;;;;;2.07;1.40;;;6.90;96.30;;;;;;4996358;28;20416;-77
2022/04/05 12:11:16;;;;;;;1.43;1.20;;;6.90;96.30;;;;;;4996344;28;20459;-76
2022/04/05 12:14:00;;;;;;;1.30;1.20;;;6.90;96.30;;;;;;4995103;28;20879;-79
2022/04/05 12:16:28;;;;;;;1.43;1.33;;;6.80;96.30;;;;;;4995132;28;20412;-77
2022/04/05 12:18:55;;;;;;;1.10;1.00;;;6.80;96.30;;;;;;4994865;28;20499;-77
2022/04/05 12:21:24;;;;;;;1.40;1.10;;;6.90;96.30;;;;;;4996289;28;20447;-76
2022/04/05 12:23:51;;;;;;;1.40;1.30;;;7.00;96.30;;;;;;4994979;28;20435;-76
2022/04/05 12:26:27;;;;;;;1.43;1.03;;;7.00;96.30;;;;;;4996058;28;20467;-79
2022/04/05 12:28:55;;;;;;;2.30;1.20;;;7.00;96.30;;;;;;4996002;28;20491;-76
2022/04/05 12:31:23;;;;;;;1.30;1.20;;;6.80;96.30;;;;;;4996020;28;20424;-78
2022/04/05 12:33:55;;;;;;;1.30;1.20;;;6.70;96.30;;;;;;4994586;28;20456;-75
2022/04/05 12:36:22;;;;;;;1.20;1.10;;;6.50;96.30;;;;;;4996220;28;20483;-75
2022/04/05 12:38:50;;;;;;;1.47;1.20;;;6.50;96.30;;;;;;4995695;28;20885;-77
2022/04/05 12:41:18;;;;;;;1.30;1.20;;;6.60;96.30;;;;;;4994688;28;20452;-76
2022/04/05 12:43:44;;;;;;;1.33;1.23;;;6.60;96.30;;;;;;4994619;28;20921;-77
2022/04/05 12:46:14;;;;;;;1.73;1.43;;;6.70;96.30;;;;;;4995745;28;20446;-77
2022/04/05 12:48:41;;;;;;;1.30;1.20;;;6.80;96.30;;;;;;4995664;28;20268;-79
2022/04/05 12:51:08;;;;;;;1.30;1.20;;;6.70;96.30;;;;;;4995875;28;20902;-79
2022/04/05 12:53:37;;;;;;;1.57;1.13;;;6.80;96.30;;;;;;4996101;28;20471;-77
2022/04/05 12:56:10;;;;;;;1.20;1.00;;;6.80;96.30;;;;;;4994615;28;20455;-77
2022/04/05 12:58:45;;;;;;;1.23;1.13;;;6.80;96.30;;;;;;4995703;28;20412;-78
2022/04/05 13:01:19;;;;;;;1.80;1.50;;;6.70;96.30;;;;;;4995905;28;20928;-77
2022/04/05 13:03:45;;;;;;;1.60;1.50;;;6.60;96.30;;;;;;4995594;28;20493;-77
2022/04/05 13:06:20;;;;;;;1.53;1.20;;;6.40;96.30;;;;;;4994204;28;20552;-77
2022/04/05 13:08:47;;;;;;;2.00;1.27;;;6.30;96.30;;;;;;4995264;28;20392;-77
2022/04/05 13:11:25;;;;;;;1.60;1.50;;;6.10;96.30;;;;;;4992720;28;20502;-78
2022/04/05 13:14:01;;;;;;;1.73;1.50;;;6.10;96.30;;;;;;4998043;28;20452;-79
2022/04/05 13:16:27;;;;;;;2.00;1.90;;;6.10;96.30;;;;;;4995319;28;20840;-78
2022/04/05 13:18:53;;;;;;;2.03;1.93;;;6.10;96.30;;;;;;5003688;28;20414;-77
2022/04/05 13:21:23;;;;;;;2.03;1.83;;;6.10;96.30;;;;;;4979291;28;20440;-77
2022/04/05 13:24:00;;;;;;;2.20;1.87;;;6.10;96.30;;;;;;4977494;28;20479;-78
2022/04/05 13:26:28;;;;;;;2.00;1.70;;;6.00;96.30;;;;;;4994774;28;20458;-77
2022/04/05 13:29:10;;;;;;;2.60;2.30;;;6.10;96.30;;;;;;4994855;28;20416;-77
2022/04/05 13:31:42;;;;;;;1.87;1.70;;;6.20;96.30;;;;;;4994683;28;21071;-77
2022/04/05 13:34:09;;;;;;;2.00;1.90;;;6.30;96.30;;;;;;4993613;28;20456;-77
2022/04/05 13:36:35;;;;;;;2.03;1.93;;;6.40;96.30;;;;;;5004340;28;20478;-76
2022/04/05 13:39:00;;;;;;;2.10;1.97;;;6.20;96.30;;;;;;4995859;28;20515;-76
2022/04/05 13:41:26;;;;;;;3.60;2.10;;;6.20;96.30;;;;;;5002004;28;20515;-77
2022/04/05 13:43:53;;;;;;;2.43;2.30;;;6.20;96.30;;;;;;4977343;28;20224;-78
2022/04/05 13:46:18;;;;;;;2.73;1.93;;;6.30;96.30;;;;;;4976421;28;20177;-78
2022/04/05 13:48:44;;;;;;;2.83;2.23;;;6.40;96.30;;;;;;4976638;28;20420;-77
2022/04/05 13:51:09;;;;;;;2.10;1.90;;;6.40;96.30;;;;;;4994647;28;20233;-77
2022/04/05 13:53:35;;;;;;;2.23;2.03;;;6.40;96.30;;;;;;5003374;28;20204;-76
2022/04/05 13:56:00;;;;;;;2.50;2.30;;;6.30;96.30;;;;;;5032183;28;20199;-77
2022/04/05 13:58:42;;;;;;;2.00;1.90;;;6.40;96.30;;;;;;4996469;28;20655;-77
2022/04/05 14:01:08;;;;;;;2.60;2.40;;;6.50;96.30;;;;;;5010913;28;20215;-79
2022/04/05 14:03:33;;;;;;;2.40;2.20;;;6.40;96.30;;;;;;5016153;28;20918;-77
2022/04/05 14:05:59;;;;;;;3.20;2.90;;;6.40;96.30;;;;;;5015858;28;20177;-77
2022/04/05 14:08:24;;;;;;;2.83;2.53;;;6.40;96.30;;;;;;4996264;28;20184;-78
2022/04/05 14:10:50;;;;;;;2.30;2.20;;;6.50;96.30;;;;;;5013677;28;20212;-79
2022/04/05 14:13:16;;;;;;;2.63;2.40;;;6.50;96.30;;;;;;5013874;28;20216;-78
2022/04/05 14:15:42;;;;;;;2.30;2.00;;;6.40;96.30;;;;;;5010965;28;20819;-79
2022/04/05 14:18:07;;;;;;;4.33;2.70;;;6.50;96.30;;;;;;4993988;28;20173;-77
2022/04/05 14:20:33;;;;;;;2.60;2.33;;;6.40;96.30;;;;;;4992565;28;20213;-77
2022/04/05 14:22:59;;;;;;;3.57;2.53;;;6.40;96.30;;;;;;4993423;28;20236;-78
2022/04/05 14:25:25;;;;;;;2.40;2.20;;;6.40;96.30;;;;;;4992621;28;20421;-78
2022/04/05 14:27:51;;;;;;;2.60;2.40;;;6.40;96.30;;;;;;4992430;28;20987;-80
2022/04/05 14:30:16;;;;;;;2.50;2.30;;;6.30;96.30;;;;;;4993833;28;20240;-76
2022/04/05 14:32:42;;;;;;;2.43;2.23;;;6.30;96.30;;;;;;5003651;28;20192;-77
2022/04/05 14:35:08;;;;;;;2.53;2.33;;;6.20;96.30;;;;;;4995733;28;20173;-78
2022/04/05 14:37:33;;;;;;;2.67;2.47;;;6.10;96.30;;;;;;5013082;28;20227;-78
2022/04/05 14:39:59;;;;;;;3.33;3.03;;;6.10;96.30;;;;;;4995810;28;20416;-80
2022/04/05 14:42:24;;;;;;;3.70;3.10;;;6.20;96.30;;;;;;5013160;28;20197;-77
2022/04/05 14:44:50;;;;;;;3.43;3.13;;;6.30;96.30;;;;;;5013289;28;20184;-78
2022/04/05 14:47:15;;;;;;;7.30;6.70;;;6.30;96.30;;;;;;5012955;28;20204;-78
2022/04/05 14:49:41;;;;;;;3.13;2.83;;;6.40;96.30;;;;;;5004563;28;20252;-77
2022/04/05 14:52:09;;;;;;;5.00;4.50;;;6.30;96.30;;;;;;4991236;28;20729;-78
2022/04/05 14:54:34;;;;;;;3.27;2.97;;;6.40;96.30;;;;;;4997669;28;20209;-78
2022/04/05 14:57:00;;;;;;;3.10;2.80;;;6.40;96.30;;;;;;5008469;28;20416;-80
2022/04/05 14:59:26;;;;;;;3.37;3.07;;;6.40;96.30;;;;;;4991905;28;20255;-80
2022/04/05 15:01:52;;;;;;;2.53;2.33;;;6.50;96.30;;;;;;4998804;28;20463;-78
2022/04/05 15:04:19;;;;;;;3.00;2.80;;;6.50;96.30;;;;;;5008946;28;20317;-82
2022/04/05 15:06:44;;;;;;;2.10;1.90;;;6.60;96.30;;;;;;4992491;28;20188;-83
2022/04/05 15:09:11;;;;;;;3.00;2.70;;;6.60;96.30;;;;;;4991872;28;20421;-81
2022/04/05 15:11:36;;;;;;;4.43;3.27;;;6.60;96.30;;;;;;5006582;28;20291;-82
2022/04/05 15:14:02;;;;;;;4.40;4.00;;;6.80;96.30;;;;;;4993664;28;21069;-82
2022/04/05 15:16:28;;;;;;;3.43;3.13;;;6.80;96.30;;;;;;4992472;28;20178;-82
2022/04/05 15:18:55;;;;;;;2.80;2.60;;;6.90;96.30;;;;;;4992692;28;20547;-82
2022/04/05 15:21:21;;;;;;;3.10;2.90;;;6.90;96.30;;;;;;4983810;28;20596;-82
2022/04/05 15:23:47;;;;;;;3.43;2.70;;;7.00;96.30;;;;;;5007342;28;20902;-83
2022/04/05 15:26:13;;;;;;;3.30;3.00;;;7.00;96.30;;;;;;4989258;28;20579;-82
2022/04/05 15:28:39;;;;;;;2.37;2.17;;;7.10;96.30;;;;;;4975709;28;20420;-80
2022/04/05 15:31:04;;;;;;;2.90;2.00;;;7.00;96.30;;;;;;4975812;28;20197;-81
2022/04/05 15:33:30;;;;;;;2.40;2.20;;;7.00;96.30;;;;;;4995322;28;20204;-79
2022/04/05 15:35:56;;;;;;;3.00;2.80;;;7.00;96.30;;;;;;4990808;28;20188;-80
2022/04/05 15:38:22;;;;;;;2.80;2.33;;;7.00;96.30;;;;;;4992942;28;20404;-80
2022/04/05 15:40:47;;;;;;;3.80;2.77;;;7.00;96.30;;;;;;5006065;28;20206;-80
2022/04/05 15:43:12;;;;;;;2.67;2.47;;;7.00;96.30;;;;;;5009437;28;20264;-80
2022/04/05 15:45:38;;;;;;;3.50;2.80;;;6.90;96.30;;;;;;5005805;28;20581;-81
2022/04/05 15:48:04;;;;;;;2.73;2.30;;;6.90;96.30;;;;;;5005933;28;20182;-81
2022/04/05 15:50:30;;;;;;;2.80;2.60;;;6.80;96.30;;;;;;4988919;28;20212;-80
2022/04/05 15:52:55;;;;;;;7.10;4.40;;;6.90;96.30;;;;;;4993989;28;20217;-80
2022/04/05 15:55:21;;;;;;;2.77;2.57;;;7.00;96.30;;;;;;5004288;28;20191;-82
2022/04/05 15:57:46;;;;;;;2.90;2.70;;;6.90;96.30;;;;;;4985354;28;20185;-79
2022/04/05 16:00:17;;;;;;;2.77;2.57;;;6.90;96.30;;;;;;5000650;28;20640;-79
2022/04/05 16:02:42;;;;;;;3.20;3.00;;;6.80;96.30;;;;;;5006968;28;20649;-77
2022/04/05 16:05:09;;;;;;;3.20;2.90;;;6.90;96.30;;;;;;4976845;28;20455;-80
2022/04/05 16:07:36;;;;;;;2.80;2.60;;;6.80;96.30;;;;;;4987663;28;20209;-82
2022/04/05 16:10:04;;;;;;;3.17;2.87;;;6.80;96.30;;;;;;5009356;28;20979;-80
2022/04/05 16:12:30;;;;;;;2.53;2.33;;;6.80;96.30;;;;;;4983739;28;20816;-82
2022/04/05 16:14:55;;;;;;;3.50;2.77;;;6.80;96.30;;;;;;4989933;28;20525;-80
2022/04/05 16:17:21;;;;;;;4.70;4.03;;;6.80;96.30;;;;;;4996197;28;20180;-80
2022/04/05 16:19:46;;;;;;;2.40;2.20;;;6.80;96.30;;;;;;4993011;28;20200;-81
2022/04/05 16:22:12;;;;;;;2.80;2.60;;;6.80;96.30;;;;;;5011442;28;20276;-77
2022/04/05 16:24:38;;;;;;;3.10;2.90;;;6.80;96.30;;;;;;5012070;28;20204;-77
2022/04/05 16:27:05;;;;;;;4.00;3.20;;;6.80;96.30;;;;;;4986592;28;20169;-78
2022/04/05 16:29:30;;;;;;;2.73;2.40;;;6.80;96.30;;;;;;4995788;28;20181;-77
2022/04/05 17:39:41;;;;;;;3.20;2.90;;;6.40;96.30;;;;;;1129108;27;21143;-74
2022/04/05 17:42:06;;;;;;;3.50;3.20;;;6.40;96.30;;;;;;4975228;28;20450;-75
2022/04/05 17:44:32;;;;;;;3.70;3.10;;;6.40;96.30;;;;;;4957918;28;20429;-78
2022/04/05 17:46:58;;;;;;;3.77;3.47;;;6.40;96.30;;;;;;4974980;28;20175;-75
2022/04/05 17:49:23;;;;;;;3.50;3.20;;;6.30;96.30;;;;;;4974677;28;20169;-76
2022/04/05 17:51:49;;;;;;;3.40;3.20;;;6.30;96.30;;;;;;4974699;28;20593;-77
2022/04/05 17:54:15;;;;;;;4.30;3.63;;;6.20;96.30;;;;;;4974781;28;20205;-77
2022/04/05 17:56:44;;;;;;;3.90;3.50;;;6.20;96.30;;;;;;4974253;28;20413;-77
2022/04/05 17:59:10;;;;;;;4.80;3.27;;;6.20;96.30;;;;;;4957191;28;20430;-77
2022/04/05 18:01:37;;;;;;;4.37;3.70;;;6.20;96.30;;;;;;4975355;28;20437;-76
2022/04/05 18:04:03;;;;;;;4.60;4.20;;;6.20;96.30;;;;;;4974961;28;20939;-79
2022/04/05 18:06:29;;;;;;;2.93;2.73;;;6.20;96.30;;;;;;4975077;28;20914;-75
2022/04/05 18:08:55;;;;;;;3.23;2.93;;;6.20;96.30;;;;;;4974378;28;20425;-79
2022/04/05 18:11:22;;;;;;;3.80;3.50;;;6.20;96.30;;;;;;4975048;28;20200;-77
2022/04/05 18:13:47;;;;;;;5.00;3.63;;;6.10;96.30;;;;;;4957417;28;20206;-78
2022/04/05 18:16:13;;;;;;;3.83;3.53;;;6.10;96.30;;;;;;4979313;28;20920;-78
2022/04/05 18:18:39;;;;;;;3.27;2.97;;;6.10;96.30;;;;;;4958305;28;20188;-77
2022/04/05 18:21:07;;;;;;;3.20;2.90;;;6.10;96.30;;;;;;4974621;28;20591;-77
2022/04/05 18:23:32;;;;;;;4.00;3.63;;;6.20;96.30;;;;;;4974687;28;20449;-76
2022/04/05 18:25:58;;;;;;;3.63;3.27;;;6.10;96.30;;;;;;4974256;28;20926;-77
2022/04/05 18:28:24;;;;;;;4.43;3.57;;;6.20;96.30;;;;;;4983601;28;20562;-77
2022/04/05 18:30:51;;;;;;;4.13;3.73;;;6.20;96.30;;;;;;4993735;28;20475;-78
2022/04/05 18:33:17;;;;;;;3.53;3.23;;;6.20;96.30;;;;;;4993753;28;20193;-76
2022/04/05 18:35:42;;;;;;;3.33;3.03;;;6.20;96.30;;;;;;4993704;28;20416;-76
2022/04/05 18:38:08;;;;;;;3.33;3.03;;;6.30;96.30;;;;;;4976153;28;20413;-77
2022/04/05 18:40:37;;;;;;;3.33;2.80;;;6.40;96.30;;;;;;4978508;28;22056;-76
2022/04/05 18:43:06;;;;;;;3.03;2.83;;;6.40;96.30;;;;;;4956841;28;20268;-76
2022/04/05 18:45:32;;;;;;;4.23;3.83;;;6.40;96.30;;;;;;4957147;28;20433;-78
2022/04/05 18:47:58;;;;;;;3.60;3.30;;;6.40;96.30;;;;;;4956840;28;20421;-76
2022/04/05 18:50:23;;;;;;;7.00;3.53;;;6.40;96.30;;;;;;4956874;28;20908;-77
2022/04/05 18:52:49;;;;;;;3.80;3.50;;;6.40;96.30;;;;;;4974241;28;20190;-78
2022/04/05 18:55:15;;;;;;;3.67;3.37;;;6.40;96.30;;;;;;4956886;28;20269;-78
2022/04/05 18:57:42;;;;;;;4.07;3.70;;;6.40;96.30;;;;;;4974232;28;20178;-77
2022/04/05 19:00:09;;;;;;;3.43;3.13;;;6.50;96.30;;;;;;4974950;28;20461;-77
2022/04/05 19:02:35;;;;;;;4.17;3.33;;;6.40;96.30;;;;;;4968489;28;20473;-77
2022/04/05 19:05:01;;;;;;;3.00;2.80;;;6.40;96.30;;;;;;4966244;28;20913;-78
2022/04/05 19:07:26;;;;;;;3.63;3.33;;;6.40;96.30;;;;;;4960772;28;20441;-79
2022/04/05 19:09:52;;;;;;;3.30;3.00;;;6.40;96.30;;;;;;4949283;28;20182;-77
2022/04/05 19:12:17;;;;;;;4.10;3.80;;;6.50;96.30;;;;;;4965679;28;20202;-78
2022/04/05 19:14:43;;;;;;;4.67;4.20;;;6.50;96.30;;;;;;4964464;28;20234;-77
2022/04/05 19:17:08;;;;;;;3.80;3.50;;;6.50;96.30;;;;;;4969738;28;20183;-78
2022/04/05 19:19:34;;;;;;;4.10;3.70;;;6.50;96.30;;;;;;4959060;28;20602;-78
2022/04/05 19:21:59;;;;;;;4.50;3.87;;;6.50;96.30;;;;;;4961465;28;20198;-79
2022/04/05 19:24:25;;;;;;;4.30;3.90;;;6.50;96.30;;;;;;4967145;28;20233;-78
2022/04/05 19:26:50;;;;;;;3.80;3.50;;;6.50;96.30;;;;;;4955495;28;20190;-77
2022/04/05 19:29:17;;;;;;;3.90;3.60;;;6.60;96.30;;;;;;4974081;28;20281;-78
2022/04/05 19:31:43;;;;;;;3.27;2.97;;;6.60;96.30;;;;;;4948455;28;20281;-76
2022/04/05 19:34:10;;;;;;;3.60;3.30;;;6.60;96.30;;;;;;4948818;28;20464;-76
2022/04/05 19:36:40;;;;;;;3.70;3.40;;;6.70;96.30;;;;;;4966854;28;20410;-80
2022/04/05 19:39:06;;;;;;;4.20;3.80;;;6.70;96.30;;;;;;4965567;28;20445;-77
2022/04/05 19:41:32;;;;;;;3.77;3.20;;;6.60;96.30;;;;;;4951068;28;20466;-79
2022/04/05 19:43:58;;;;;;;3.80;3.50;;;6.60;96.30;;;;;;4972608;28;20410;-79
2022/04/05 19:46:23;;;;;;;7.53;3.20;;;6.60;96.30;;;;;;4952235;28;20174;-78
2022/04/05 19:48:51;;;;;;;6.00;3.87;;;6.70;96.30;;;;;;4989412;28;20268;-84
2022/04/05 19:51:17;;;;;;;3.97;3.57;;;6.70;96.30;;;;;;4977138;28;20256;-82
2022/04/05 19:53:43;;;;;;;3.77;3.47;;;6.70;96.30;;;;;;4986931;28;20458;-79
2022/04/05 19:56:10;;;;;;;3.57;3.20;;;6.70;96.30;;;;;;4976105;28;20303;-78
2022/04/05 19:58:36;;;;;;;4.30;3.90;;;6.70;96.30;;;;;;4945966;29;20431;-75
2022/04/05 20:01:02;;;;;;;3.67;3.37;;;6.70;96.30;;;;;;4966301;28;20958;-75
2022/04/05 20:03:28;;;;;;;3.83;3.43;;;6.70;96.30;;;;;;4968576;28;20504;-75
2022/04/05 20:05:53;;;;;;;4.03;3.63;;;6.60;96.30;;;;;;4978878;28;20221;-76
2022/04/05 20:08:19;;;;;;;4.00;3.70;;;6.60;96.30;;;;;;4961589;28;20186;-78
2022/04/05 20:10:44;;;;;;;3.90;3.30;;;6.60;96.30;;;;;;4981576;28;20241;-76
2022/04/05 20:13:10;;;;;;;3.50;3.27;;;6.60;96.30;;;;;;4954616;28;20228;-76
2022/04/05 20:15:36;;;;;;;3.80;3.50;;;6.60;96.30;;;;;;4972804;28;20539;-76
2022/04/05 20:20:47;;;;;;;4.70;4.20;;;6.60;96.30;;;;;;4968383;28;20822;-76
2022/04/05 20:23:12;;;;;;;3.77;3.47;;;6.60;96.30;;;;;;4951639;28;20433;-77
2022/04/05 20:25:38;;;;;;;3.50;3.20;;;6.60;96.30;;;;;;4970992;28;20186;-76
2022/04/05 20:28:04;;;;;;;3.60;3.30;;;6.80;96.30;;;;;;4970412;28;20190;-79
2022/04/05 20:30:30;;;;;;;4.63;3.37;;;6.70;96.30;;;;;;4956617;28;20178;-77
2022/04/05 20:32:56;;;;;;;3.17;2.97;;;6.60;96.30;;;;;;4952813;28;20529;-79
2022/04/05 20:35:21;;;;;;;3.70;3.07;;;6.70;96.30;;;;;;4978513;28;20189;-77
2022/04/05 20:37:47;;;;;;;3.93;3.33;;;6.70;96.30;;;;;;4987689;28;20615;-77
2022/04/05 20:40:13;;;;;;;3.40;3.07;;;6.70;96.30;;;;;;4962573;28;20693;-77
2022/04/05 20:42:39;;;;;;;3.40;3.10;;;6.70;96.30;;;;;;4969771;28;20797;-78
2022/04/05 20:45:05;;;;;;;3.20;2.90;;;6.70;96.30;;;;;;4960720;28;20418;-78
2022/04/05 20:47:31;;;;;;;3.53;3.23;;;6.80;96.30;;;;;;4950438;28;20553;-78
2022/04/05 20:49:57;;;;;;;3.00;2.80;;;6.80;96.30;;;;;;4950413;28;20501;-77
2022/04/05 20:52:23;;;;;;;2.80;2.60;;;6.70;96.30;;;;;;4946516;28;20289;-77
2022/04/05 20:54:48;;;;;;;2.63;2.43;;;6.70;96.30;;;;;;4963288;28;20234;-77
2022/04/05 20:57:21;;;;;;;2.80;2.60;;;6.80;96.30;;;;;;4949412;28;20178;-77
2022/04/05 20:59:51;;;;;;;2.17;1.97;;;6.80;96.30;;;;;;4966694;28;20165;-77
2022/04/05 21:02:18;;;;;;;3.00;2.80;;;6.80;96.30;;;;;;4945695;28;20460;-79
2022/04/05 21:04:43;;;;;;;2.60;2.40;;;6.80;96.30;;;;;;4964723;28;20422;-76
2022/04/05 21:07:09;;;;;;;2.80;2.50;;;6.80;96.30;;;;;;4947336;28;20427;-78
2022/04/05 21:09:34;;;;;;;3.70;2.90;;;6.80;96.30;;;;;;4967967;28;20189;-76
2022/04/05 21:12:00;;;;;;;2.40;2.20;;;6.90;96.30;;;;;;4973615;28;20689;-76
2022/04/05 21:14:25;;;;;;;3.00;2.40;;;6.90;96.30;;;;;;4959385;28;20224;-77
2022/04/05 21:16:51;;;;;;;2.60;2.40;;;6.80;96.30;;;;;;4966909;28;20182;-79
2022/04/05 21:19:18;;;;;;;2.97;2.73;;;6.80;96.30;;;;;;4961320;28;20197;-76
2022/04/05 21:21:44;;;;;;;2.83;2.60;;;6.90;96.30;;;;;;4956434;28;20219;-76
2022/04/05 21:24:11;;;;;;;3.33;3.03;;;6.90;96.30;;;;;;4956551;29;20422;-78
2022/04/05 21:26:37;;;;;;;2.73;2.53;;;6.90;96.30;;;;;;4971273;28;20194;-76
2022/04/05 21:31:47;;;;;;;4.53;4.13;;;7.00;96.30;;;;;;4955461;28;20437;-77
2022/04/05 21:34:13;;;;;;;3.40;3.10;;;7.00;96.30;;;;;;4938849;29;20450;-77
2022/04/05 21:36:41;;;;;;;2.67;2.47;;;7.00;96.30;;;;;;4956208;29;20576;-77
2022/04/05 21:39:11;;;;;;;4.20;3.80;;;7.00;96.30;;;;;;4971487;28;20178;-77